createdAt,value
2022-08-05T00:01:36.570Z,43.76
2022-08-05T00:04:17.748Z,43.55
2022-08-05T00:06:45.453Z,43.61
2022-08-05T00:09:16.047Z,43.85
2022-08-05T00:11:55.352Z,43.70
2022-08-05T00:14:27.837Z,42.68
2022-08-05T00:16:59.184Z,42.75
2022-08-05T00:19:32.857Z,42.81
2022-08-05T00:22:02.568Z,42.88
2022-08-05T00:24:31.116Z,42.70
2022-08-05T00:27:04.721Z,42.82
2022-08-05T00:29:38.492Z,42.58
2022-08-05T00:32:13.060Z,43.50
2022-08-05T00:35:03.535Z,42.93
2022-08-05T00:37:35.791Z,43.56
2022-08-05T00:40:27.329Z,43.46
2022-08-05T00:42:57.949Z,44.10
2022-08-05T00:45:38.801Z,42.65
2022-08-05T00:48:12.799Z,42.92
2022-08-05T00:50:44.084Z,42.43
2022-08-05T00:54:01.325Z,42.51
2022-08-05T00:56:04.648Z,41.98
2022-08-05T00:58:32.282Z,41.86
2022-08-05T01:00:59.796Z,41.60
2022-08-05T01:03:33.521Z,41.46
2022-08-05T01:06:01.828Z,42.41
2022-08-05T01:08:43.207Z,42.38
2022-08-05T01:11:22.428Z,43.13
2022-08-05T01:14:08.801Z,42.24
2022-08-05T01:16:54.843Z,42.07
2022-08-05T01:19:36.839Z,43.01
2022-08-05T01:22:15.460Z,42.67
2022-08-05T01:24:52.593Z,42.80
2022-08-05T01:27:55.294Z,42.41
2022-08-05T01:30:34.323Z,42.33
2022-08-05T01:33:08.189Z,43.52
2022-08-05T01:35:50.757Z,43.83
2022-08-05T01:38:27.582Z,42.93
2022-08-05T01:41:01.509Z,42.34
2022-08-05T01:43:30.419Z,42.69
2022-08-05T01:46:07.110Z,42.81
2022-08-05T01:48:45.620Z,43.32
2022-08-05T01:51:18.864Z,43.95
2022-08-05T01:53:57.708Z,43.74
2022-08-05T01:58:10.298Z,42.54
2022-08-05T01:59:22.494Z,42.88
2022-08-05T02:01:51.920Z,43.51
2022-08-05T02:04:24.181Z,43.97
2022-08-05T02:06:53.120Z,44.41
2022-08-05T02:09:20.928Z,43.25
2022-08-05T02:11:53.630Z,43.29
2022-08-05T02:14:44.314Z,43.88
2022-08-05T02:18:27.916Z,45.59
2022-08-05T02:20:23.397Z,45.30
2022-08-05T02:23:03.529Z,44.40
2022-08-05T02:25:49.332Z,44.52
2022-08-05T02:28:32.164Z,44.76
2022-08-05T02:31:07.494Z,44.32
2022-08-05T02:33:39.750Z,43.92
2022-08-05T02:36:16.945Z,44.76
2022-08-05T02:38:52.957Z,43.91
2022-08-05T02:41:23.141Z,43.96
2022-08-05T02:44:02.747Z,44.41
2022-08-05T02:46:53.789Z,45.64
2022-08-05T02:49:35.756Z,44.72
2022-08-05T02:52:07.905Z,44.02
2022-08-05T02:54:41.561Z,43.99
2022-08-05T02:58:12.159Z,44.85
2022-08-05T03:00:04.749Z,44.38
2022-08-05T03:02:36.757Z,45.62
2022-08-05T03:05:05.531Z,44.91
2022-08-05T03:07:59.323Z,44.90
2022-08-05T03:10:24.870Z,44.54
2022-08-05T03:12:54.165Z,44.40
2022-08-05T03:15:23.984Z,45.10
2022-08-05T03:17:57.480Z,45.12
2022-08-05T03:20:25.698Z,46.91
2022-08-05T03:22:57.365Z,46.34
2022-08-05T03:25:32.402Z,45.92
2022-08-05T03:28:14.656Z,46.24
2022-08-05T03:30:47.853Z,46.90
2022-08-05T03:33:16.480Z,46.42
2022-08-05T03:35:47.968Z,45.84
2022-08-05T03:38:15.626Z,46.03
2022-08-05T03:40:45.121Z,45.97
2022-08-05T03:44:08.462Z,46.08
2022-08-05T03:46:04.628Z,46.11
2022-08-05T03:48:35.613Z,45.88
2022-08-05T03:52:37.148Z,47.13
2022-08-05T03:55:51.364Z,47.00
2022-08-05T03:56:53.199Z,46.56
2022-08-05T03:59:24.730Z,46.53
2022-08-05T04:01:53.836Z,47.15
2022-08-05T04:04:27.468Z,47.24
2022-08-05T04:06:55.996Z,46.90
2022-08-05T04:09:26.402Z,46.69
2022-08-05T04:11:56.532Z,46.74
2022-08-05T04:14:30.571Z,46.66
2022-08-05T04:17:00.207Z,47.17
2022-08-05T04:19:29.253Z,47.82
2022-08-05T04:22:09.009Z,47.47
2022-08-05T04:24:44.034Z,46.93
2022-08-05T04:27:13.487Z,47.17
2022-08-05T04:29:41.686Z,47.49
2022-08-05T04:32:10.298Z,48.32
2022-08-05T04:34:42.830Z,47.61
2022-08-05T04:37:11.346Z,47.55
2022-08-05T04:39:39.184Z,46.86
2022-08-05T04:42:08.000Z,46.70
2022-08-05T04:44:36.882Z,46.13
2022-08-05T04:47:09.046Z,45.94
2022-08-05T04:50:01.738Z,45.51
2022-08-05T04:52:28.381Z,45.76
2022-08-05T04:54:57.267Z,46.08
2022-08-05T04:57:28.662Z,45.84
2022-08-05T04:59:58.816Z,46.72
2022-08-05T05:02:36.680Z,45.70
2022-08-05T05:05:26.221Z,45.79
2022-08-05T05:07:56.533Z,46.79
2022-08-05T05:10:33.866Z,46.20
2022-08-05T05:13:03.995Z,44.97
2022-08-05T05:16:02.028Z,44.19
2022-08-05T05:18:31.075Z,44.39
2022-08-05T05:21:03.615Z,43.55
2022-08-05T05:24:02.111Z,43.29
2022-08-05T05:26:19.588Z,43.11
2022-08-05T05:28:56.282Z,42.59
2022-08-05T05:31:24.816Z,42.55
2022-08-05T05:33:59.393Z,42.01
2022-08-05T05:36:28.590Z,41.69
2022-08-05T05:38:57.956Z,41.45
2022-08-05T05:41:26.394Z,41.35
2022-08-05T05:44:35.590Z,41.12
2022-08-05T05:46:57.098Z,41.02
2022-08-05T05:49:28.724Z,40.64
2022-08-05T05:51:56.882Z,40.27
2022-08-05T05:54:49.741Z,40.36
2022-08-05T05:57:13.753Z,40.01
2022-08-05T05:59:47.874Z,39.75
2022-08-05T06:02:17.040Z,39.54
2022-08-05T06:05:03.405Z,39.52
2022-08-05T06:07:41.372Z,39.63
2022-08-05T06:10:10.736Z,39.43
2022-08-05T06:12:42.059Z,38.94
2022-08-05T06:15:16.182Z,38.97
2022-08-05T06:17:53.068Z,39.04
2022-08-05T06:20:21.986Z,38.55
2022-08-05T06:22:49.424Z,38.33
2022-08-05T06:25:24.237Z,37.78
2022-08-05T06:28:10.931Z,36.19
2022-08-05T06:30:47.833Z,35.48
2022-08-05T06:33:19.327Z,35.14
2022-08-05T06:36:07.389Z,34.68
2022-08-05T06:38:37.702Z,33.94
2022-08-05T06:41:08.136Z,33.85
2022-08-05T06:43:58.763Z,33.56
2022-08-05T06:46:29.891Z,33.77
2022-08-05T06:48:59.647Z,32.73
2022-08-05T06:51:30.711Z,33.46
2022-08-05T06:53:59.899Z,32.97
2022-08-05T06:56:28.043Z,32.29
2022-08-05T06:58:55.875Z,31.56
2022-08-05T07:01:23.605Z,32.05
2022-08-05T07:03:55.218Z,32.45
2022-08-05T07:06:23.341Z,31.54
2022-08-05T07:08:52.030Z,30.90
2022-08-05T07:11:25.461Z,31.10
2022-08-05T07:14:15.414Z,30.02
2022-08-05T07:18:08.483Z,29.87
2022-08-05T07:22:30.059Z,30.09
2022-08-05T07:24:59.523Z,30.33
2022-08-05T07:27:57.542Z,32.14
2022-08-05T07:30:32.701Z,30.91
2022-08-05T07:33:09.073Z,30.11
2022-08-05T07:36:03.791Z,30.11
2022-08-05T07:38:33.695Z,30.87
2022-08-05T07:42:12.847Z,30.62
2022-08-05T07:44:14.498Z,30.58
2022-08-05T07:46:48.650Z,30.41
2022-08-05T07:49:18.327Z,30.82
2022-08-05T07:51:53.320Z,29.76
2022-08-05T07:54:31.305Z,29.86
2022-08-05T07:57:22.753Z,29.81
2022-08-05T07:59:50.341Z,30.47
2022-08-05T08:02:18.466Z,30.03
2022-08-05T08:04:47.291Z,31.17
2022-08-05T08:07:15.329Z,30.14
2022-08-05T08:09:43.626Z,30.42
2022-08-05T08:12:35.457Z,30.00
2022-08-05T08:15:02.686Z,30.12
2022-08-05T08:17:32.373Z,28.93
2022-08-05T08:20:22.696Z,29.39
2022-08-05T08:22:55.670Z,28.43
2022-08-05T08:25:27.030Z,29.11
2022-08-05T08:28:18.376Z,29.02
2022-08-05T08:31:01.268Z,29.21
2022-08-05T08:33:28.977Z,28.32
2022-08-05T08:38:53.443Z,29.12
2022-08-05T08:41:26.354Z,28.09
2022-08-05T08:47:22.351Z,29.34
2022-08-05T08:50:30.710Z,28.50
2022-08-05T08:52:57.783Z,28.46
2022-08-05T08:56:01.590Z,29.33
2022-08-05T08:58:15.274Z,28.80
2022-08-05T09:00:44.509Z,28.79
2022-08-05T09:03:16.273Z,28.07
2022-08-05T09:06:08.949Z,27.67
2022-08-05T09:08:40.230Z,27.87
2022-08-05T09:11:12.304Z,27.75
2022-08-05T09:14:10.360Z,27.88
2022-08-05T09:16:30.980Z,27.36
2022-08-05T09:18:59.280Z,26.72
2022-08-05T09:22:22.777Z,27.30
2022-08-05T09:28:37.716Z,26.96
2022-08-05T09:31:44.060Z,26.19
2022-08-05T09:34:04.045Z,25.97
2022-08-05T09:36:55.129Z,26.87
2022-08-05T09:39:45.634Z,26.57
2022-08-05T09:46:06.648Z,26.85
2022-08-05T09:49:06.491Z,25.25
2022-08-05T09:51:38.554Z,26.53
2022-08-05T09:54:10.484Z,25.76
2022-08-05T09:56:39.437Z,25.36
2022-08-05T09:59:09.550Z,26.00
2022-08-05T10:01:45.882Z,25.59
2022-08-05T10:04:16.243Z,25.42
2022-08-05T10:06:59.117Z,24.61
2022-08-05T10:09:29.545Z,24.98
2022-08-05T10:12:18.683Z,25.07
2022-08-05T10:15:20.279Z,25.25
2022-08-05T10:18:09.713Z,24.26
2022-08-05T10:20:50.573Z,24.20
2022-08-05T10:23:34.339Z,23.99
2022-08-05T10:26:13.826Z,24.60
2022-08-05T10:28:46.372Z,25.80
2022-08-05T10:32:50.554Z,24.03
2022-08-05T10:34:03.608Z,22.91
2022-08-05T10:36:31.271Z,23.69
2022-08-05T10:39:05.299Z,24.30
2022-08-05T10:42:03.901Z,24.75
2022-08-05T10:44:32.393Z,23.37
2022-08-05T10:47:26.614Z,23.86
2022-08-05T10:50:31.692Z,23.41
2022-08-05T10:52:58.531Z,23.83
2022-08-05T10:55:27.101Z,23.41
2022-08-05T10:58:09.369Z,23.96
2022-08-05T11:00:46.173Z,23.57
2022-08-05T11:03:24.258Z,22.51
2022-08-05T11:06:16.234Z,22.42
2022-08-05T11:09:13.207Z,22.42
2022-08-05T11:11:53.003Z,22.89
2022-08-05T11:14:42.831Z,22.49
2022-08-05T11:17:59.813Z,23.24
2022-08-05T11:20:43.674Z,23.09
2022-08-05T11:29:41.008Z,21.95
2022-08-05T11:32:26.916Z,21.76
2022-08-05T11:34:55.357Z,22.01
2022-08-05T11:38:29.337Z,20.90
2022-08-05T11:41:14.045Z,24.54
2022-08-05T11:44:05.473Z,23.05
2022-08-05T11:47:09.422Z,21.17
2022-08-05T11:49:42.825Z,22.41
2022-08-05T11:52:11.979Z,20.69
2022-08-05T11:54:41.623Z,20.57
2022-08-05T11:57:24.487Z,20.56
2022-08-05T11:59:58.974Z,20.10
2022-08-05T12:02:31.659Z,19.88
2022-08-05T12:05:07.117Z,20.00
2022-08-05T12:08:10.330Z,19.27
2022-08-05T12:10:43.272Z,19.05
2022-08-05T12:13:16.488Z,19.69
2022-08-05T12:15:49.658Z,18.90
2022-08-05T12:18:19.089Z,18.70
2022-08-05T12:20:48.424Z,18.67
2022-08-05T12:23:16.794Z,18.03
2022-08-05T12:25:56.698Z,18.83
2022-08-05T12:38:15.751Z,18.50
2022-08-05T12:40:50.798Z,18.51
2022-08-05T12:43:21.037Z,17.99
2022-08-05T12:45:55.939Z,18.04
2022-08-05T12:48:27.665Z,17.26
2022-08-05T12:51:21.612Z,16.46
2022-08-05T12:54:01.938Z,17.36
2022-08-05T12:56:34.857Z,17.13
2022-08-05T12:59:20.745Z,17.46
2022-08-05T13:02:07.504Z,16.76
2022-08-05T13:04:54.534Z,16.53
2022-08-05T13:07:55.875Z,16.24
2022-08-05T13:10:19.960Z,16.11
2022-08-05T13:12:50.723Z,16.45
2022-08-05T13:15:41.887Z,15.94
2022-08-05T13:18:20.235Z,15.83
2022-08-05T13:20:49.701Z,15.87
2022-08-05T13:23:22.698Z,16.13
2022-08-05T13:25:59.171Z,15.90
2022-08-05T13:28:27.949Z,16.60
2022-08-05T13:30:57.219Z,15.99
2022-08-05T13:34:21.145Z,15.12
2022-08-05T13:36:14.482Z,15.72
2022-08-05T13:38:43.055Z,15.85
2022-08-05T13:41:11.744Z,16.67
2022-08-05T13:43:45.266Z,16.16
2022-08-05T13:46:50.985Z,15.43
2022-08-05T13:49:13.694Z,15.38
2022-08-05T13:51:46.538Z,15.15
2022-08-05T13:54:16.464Z,15.11
2022-08-05T13:56:50.784Z,15.17
2022-08-05T13:59:23.822Z,15.67
2022-08-05T14:02:00.363Z,15.69
2022-08-05T14:04:52.104Z,16.22
2022-08-05T14:07:26.362Z,15.94
2022-08-05T14:10:18.402Z,16.15
2022-08-05T14:12:48.630Z,16.11
2022-08-05T14:16:04.602Z,15.92
2022-08-05T14:18:05.031Z,16.48
2022-08-05T14:20:32.769Z,16.02
2022-08-05T14:23:00.718Z,15.78
2022-08-05T14:25:30.402Z,15.53
2022-08-05T14:27:58.294Z,16.16
2022-08-05T14:30:26.772Z,16.37
2022-08-05T14:32:56.789Z,15.91
2022-08-05T14:35:36.252Z,16.12
2022-08-05T14:38:05.089Z,16.26
2022-08-05T14:40:32.807Z,16.44
2022-08-05T14:43:01.507Z,15.76
2022-08-05T14:45:28.966Z,16.09
2022-08-05T14:48:04.918Z,16.39
2022-08-05T14:50:36.063Z,16.62
2022-08-05T14:53:08.822Z,16.81
2022-08-05T14:55:39.008Z,15.99
2022-08-05T14:58:12.032Z,16.57
2022-08-05T15:00:59.333Z,16.19
2022-08-05T15:03:33.355Z,16.78
2022-08-05T15:06:15.468Z,16.23
2022-08-05T15:08:59.705Z,16.13
2022-08-05T15:11:53.272Z,16.71
2022-08-05T15:14:35.618Z,16.60
2022-08-05T15:17:44.848Z,16.74
2022-08-05T15:20:00.470Z,16.20
2022-08-05T15:22:28.718Z,16.80
2022-08-05T15:24:56.842Z,16.34
2022-08-05T15:27:25.776Z,16.55
2022-08-05T15:29:56.657Z,16.90
2022-08-05T15:32:27.425Z,16.06
2022-08-05T15:34:57.246Z,16.41
2022-08-05T15:38:32.562Z,16.45
2022-08-05T15:41:03.017Z,17.20
2022-08-05T15:43:09.202Z,16.60
2022-08-05T15:45:47.695Z,17.54
2022-08-05T15:48:28.388Z,17.80
2022-08-05T15:50:56.342Z,17.66
2022-08-05T15:53:26.521Z,17.84
2022-08-05T15:56:09.100Z,18.95
2022-08-05T15:58:41.532Z,18.23
2022-08-05T16:01:16.985Z,18.13
2022-08-05T16:03:48.461Z,17.72
2022-08-05T16:06:26.793Z,18.25
2022-08-05T16:09:00.099Z,18.25
2022-08-05T16:11:43.049Z,18.19
2022-08-05T16:14:17.183Z,17.86
2022-08-05T16:16:46.104Z,19.70
2022-08-05T16:20:02.781Z,19.21
2022-08-05T16:22:10.756Z,19.21
2022-08-05T16:24:40.687Z,21.01
2022-08-05T16:27:18.677Z,20.02
2022-08-05T16:29:50.912Z,20.26
2022-08-05T16:32:28.399Z,19.59
2022-08-05T16:34:58.894Z,19.89
2022-08-05T16:38:16.394Z,19.50
2022-08-05T16:40:26.623Z,19.64
2022-08-05T16:42:57.361Z,19.87
2022-08-05T16:46:04.214Z,20.43
2022-08-05T16:48:25.939Z,20.34
2022-08-05T16:51:00.171Z,21.11
2022-08-05T16:53:32.024Z,21.38
2022-08-05T16:56:00.546Z,22.35
2022-08-05T16:58:29.402Z,21.86
2022-08-05T17:01:00.358Z,21.43
2022-08-05T17:03:28.100Z,21.45
2022-08-05T17:06:00.466Z,21.65
2022-08-05T17:08:33.386Z,21.36
2022-08-05T17:11:16.970Z,21.97
2022-08-05T17:13:46.037Z,21.26
2022-08-05T17:16:32.727Z,21.41
2022-08-05T17:19:01.709Z,22.10
2022-08-05T17:21:36.280Z,21.49
2022-08-05T17:24:36.505Z,21.83
2022-08-05T17:27:12.533Z,21.91
2022-08-05T17:29:47.154Z,21.78
2022-08-05T17:32:19.822Z,22.07
2022-08-05T17:34:49.241Z,22.45
2022-08-05T17:37:35.988Z,22.46
2022-08-05T17:40:13.276Z,22.62
2022-08-05T17:42:46.448Z,22.84
2022-08-05T17:45:22.241Z,23.03
2022-08-05T17:47:55.000Z,23.45
2022-08-05T17:50:28.790Z,23.69
2022-08-05T17:53:02.548Z,23.93
2022-08-05T17:55:37.498Z,24.26
2022-08-05T17:58:09.348Z,24.25
2022-08-05T18:00:40.857Z,24.67
2022-08-05T18:03:24.129Z,24.80
2022-08-05T18:06:06.128Z,24.72
2022-08-05T18:08:44.865Z,25.16
2022-08-05T18:11:24.293Z,25.12
2022-08-05T18:14:04.201Z,25.47
2022-08-05T18:16:33.331Z,25.38
2022-08-05T18:19:02.240Z,25.49
2022-08-05T18:22:08.646Z,26.03
2022-08-05T18:24:18.977Z,26.39
2022-08-05T18:26:52.428Z,26.73
2022-08-05T18:29:40.359Z,27.45
2022-08-05T18:32:12.674Z,27.32
2022-08-05T18:34:42.996Z,27.17
2022-08-05T18:37:12.514Z,27.10
2022-08-05T18:40:34.288Z,27.27
2022-08-05T18:42:33.226Z,28.30
2022-08-05T18:45:01.650Z,27.88
2022-08-05T18:47:31.046Z,27.33
2022-08-05T18:50:20.885Z,27.79
2022-08-05T18:53:15.053Z,29.00
2022-08-05T18:55:49.674Z,29.17
2022-08-05T18:58:27.174Z,28.66
2022-08-05T19:00:57.458Z,28.39
2022-08-05T19:03:52.909Z,29.42
2022-08-05T19:06:22.192Z,29.48
2022-08-05T19:09:01.623Z,29.36
2022-08-05T19:11:58.642Z,29.51
2022-08-05T19:14:59.313Z,30.41
2022-08-05T19:17:07.751Z,29.95
2022-08-05T19:19:35.626Z,30.03
2022-08-05T19:22:04.426Z,29.67
2022-08-05T19:24:36.128Z,30.19
2022-08-05T19:27:06.208Z,30.09
2022-08-05T19:29:35.897Z,31.22
2022-08-05T19:32:11.363Z,32.28
2022-08-05T19:34:39.977Z,31.66
2022-08-05T19:37:08.800Z,32.45
2022-08-05T19:39:45.469Z,32.38
2022-08-05T19:42:35.304Z,31.49
2022-08-05T19:45:06.069Z,31.84
2022-08-05T19:47:37.630Z,31.74
2022-08-05T19:50:07.920Z,32.48
2022-08-05T19:52:40.821Z,32.36
2022-08-05T19:56:13.795Z,32.19
2022-08-05T19:58:06.817Z,32.18
2022-08-05T20:00:45.595Z,32.32
2022-08-05T20:03:13.767Z,32.95
2022-08-05T20:05:50.198Z,34.75
2022-08-05T20:08:20.705Z,33.32
2022-08-05T20:10:52.894Z,32.98
2022-08-05T20:13:54.463Z,33.10
2022-08-05T20:16:10.143Z,32.95
2022-08-05T20:18:39.041Z,33.59
2022-08-05T20:21:08.274Z,34.31
2022-08-05T20:23:44.502Z,36.55
2022-08-05T20:26:21.342Z,36.08
2022-08-05T20:28:55.578Z,35.20
2022-08-05T20:31:37.324Z,35.08
2022-08-05T20:34:13.789Z,34.19
2022-08-05T20:36:43.407Z,35.10
2022-08-05T20:39:12.938Z,34.26
2022-08-05T20:41:43.272Z,34.61
2022-08-05T20:44:18.884Z,34.71
2022-08-05T20:47:01.632Z,37.08
2022-08-05T20:49:33.185Z,35.13
2022-08-05T20:52:08.834Z,35.46
2022-08-05T20:54:43.066Z,35.56
2022-08-05T20:57:43.511Z,34.68
2022-08-05T21:00:34.951Z,35.06
2022-08-05T21:03:07.574Z,35.70
2022-08-05T21:05:47.637Z,35.40
2022-08-05T21:08:26.939Z,34.76
2022-08-05T21:11:01.584Z,35.47
2022-08-05T21:13:47.820Z,34.43
2022-08-05T21:16:29.949Z,35.75
2022-08-05T21:19:03.565Z,36.36
2022-08-05T21:21:39.685Z,36.36
2022-08-05T21:24:13.503Z,36.13
2022-08-05T21:26:53.712Z,36.91
2022-08-05T21:29:31.813Z,36.71
2022-08-05T21:32:03.395Z,37.35
2022-08-05T21:34:33.121Z,36.63
2022-08-05T21:37:04.884Z,37.21
2022-08-05T21:39:34.743Z,36.97
2022-08-05T21:42:30.752Z,37.08
2022-08-05T21:44:58.196Z,36.86
2022-08-05T21:47:56.124Z,36.63
2022-08-05T21:50:15.116Z,36.99
2022-08-05T21:52:47.375Z,36.89
2022-08-05T21:55:15.067Z,36.49
2022-08-05T21:57:42.971Z,36.58
2022-08-05T22:00:11.766Z,36.60
2022-08-05T22:02:41.611Z,37.76
2022-08-05T22:05:12.405Z,37.87
2022-08-05T22:07:58.417Z,39.30
2022-08-05T22:10:28.151Z,38.67
2022-08-05T22:12:58.763Z,39.27
2022-08-05T22:16:02.461Z,38.92
2022-08-05T22:18:14.789Z,40.21
2022-08-05T22:20:44.251Z,39.61
2022-08-05T22:24:01.041Z,40.19
2022-08-05T22:26:38.296Z,39.32
2022-08-05T22:29:05.965Z,39.43
2022-08-05T22:31:44.918Z,39.58
2022-08-05T22:34:20.153Z,39.89
2022-08-05T22:36:58.406Z,40.70
2022-08-05T22:39:33.226Z,39.04
2022-08-05T22:42:09.442Z,39.53
2022-08-05T22:44:39.474Z,39.81
2022-08-05T22:47:08.058Z,40.25
2022-08-05T22:50:20.522Z,40.41
2022-08-05T22:52:32.203Z,41.26
2022-08-05T22:55:02.248Z,41.25
2022-08-05T22:57:34.150Z,41.39
2022-08-05T23:00:07.811Z,40.79
2022-08-05T23:02:40.044Z,41.30
2022-08-05T23:05:16.495Z,40.45
2022-08-05T23:07:48.257Z,39.97
2022-08-05T23:10:19.573Z,40.47
2022-08-05T23:12:54.524Z,40.71
2022-08-05T23:15:29.304Z,41.12
2022-08-05T23:18:01.401Z,41.60
2022-08-05T23:20:37.497Z,41.78
2022-08-05T23:23:08.014Z,41.31
2022-08-05T23:25:54.968Z,41.38
2022-08-05T23:28:29.104Z,41.71
2022-08-05T23:31:07.042Z,42.15
2022-08-05T23:34:04.446Z,42.20
2022-08-05T23:36:39.848Z,41.87
2022-08-05T23:39:17.387Z,41.21
2022-08-05T23:41:52.327Z,42.45
2022-08-05T23:44:25.198Z,42.15
2022-08-05T23:46:56.056Z,42.42
2022-08-05T23:49:35.772Z,44.06
2022-08-05T23:52:25.417Z,43.69
2022-08-05T23:54:54.539Z,43.21
2022-08-05T23:57:22.118Z,42.45
